createdAt,value
2018-08-18T00:00:38.184Z,14.10
2018-08-18T00:03:08.077Z,14.00
2018-08-18T00:05:37.840Z,14.00
2018-08-18T00:08:09.038Z,14.00
2018-08-18T00:10:38.903Z,13.90
2018-08-18T00:13:09.865Z,13.90
2018-08-18T00:15:39.531Z,13.90
2018-08-18T00:18:09.891Z,13.90
2018-08-18T00:20:39.628Z,13.80
2018-08-18T00:23:10.107Z,13.80
2018-08-18T00:25:39.694Z,13.80
2018-08-18T00:28:25.818Z,13.70
2018-08-18T00:30:55.533Z,13.70
2018-08-18T00:33:26.071Z,13.60
2018-08-18T00:35:56.275Z,13.60
2018-08-18T00:38:25.879Z,13.60
2018-08-18T00:40:55.621Z,13.60
2018-08-18T00:43:26.246Z,13.50
2018-08-18T00:45:56.343Z,13.50
2018-08-18T00:48:26.889Z,13.50
2018-08-18T00:50:56.563Z,13.50
2018-08-18T00:53:26.257Z,13.40
2018-08-18T00:55:56.791Z,13.40
2018-08-18T00:58:30.414Z,13.40
2018-08-18T01:01:04.270Z,13.30
2018-08-18T01:03:42.250Z,13.30
2018-08-18T01:06:20.084Z,13.30
2018-08-18T01:08:54.197Z,13.30
2018-08-18T01:11:24.523Z,13.30
2018-08-18T01:13:54.980Z,13.30
2018-08-18T01:16:24.655Z,13.30
2018-08-18T01:18:55.326Z,13.40
2018-08-18T01:21:25.531Z,13.40
2018-08-18T01:23:55.051Z,13.40
2018-08-18T01:26:25.752Z,13.40
2018-08-18T01:29:04.980Z,13.40
2018-08-18T01:31:34.564Z,13.40
2018-08-18T01:34:04.402Z,13.40
2018-08-18T01:36:34.549Z,13.40
2018-08-18T01:39:06.896Z,13.40
2018-08-18T01:41:37.036Z,13.40
2018-08-18T01:44:19.501Z,13.40
2018-08-18T01:46:50.405Z,13.40
2018-08-18T01:49:22.283Z,13.40
2018-08-18T01:51:52.775Z,13.40
2018-08-18T01:54:22.432Z,13.40
2018-08-18T01:56:57.357Z,13.40
2018-08-18T01:59:28.122Z,13.40
2018-08-18T02:01:57.908Z,13.40
2018-08-18T02:04:27.693Z,13.40
2018-08-18T02:07:37.714Z,13.40
2018-08-18T02:10:07.344Z,13.40
2018-08-18T02:12:38.844Z,13.40
2018-08-18T02:15:09.277Z,13.30
2018-08-18T02:17:39.561Z,13.30
2018-08-18T02:20:11.906Z,13.30
2018-08-18T02:22:41.881Z,13.30
2018-08-18T02:25:12.825Z,13.30
2018-08-18T02:27:43.023Z,13.30
2018-08-18T02:30:17.020Z,13.30
2018-08-18T02:32:47.485Z,13.30
2018-08-18T02:35:19.221Z,13.30
2018-08-18T02:37:49.139Z,13.40
2018-08-18T02:40:19.197Z,13.40
2018-08-18T02:42:50.238Z,13.40
2018-08-18T02:45:20.093Z,13.40
2018-08-18T02:48:14.939Z,13.40
2018-08-18T02:50:51.910Z,13.40
2018-08-18T02:53:26.879Z,13.40
2018-08-18T02:55:57.072Z,13.40
2018-08-18T02:58:27.919Z,13.40
2018-08-18T03:00:58.236Z,13.40
2018-08-18T03:03:28.674Z,13.40
2018-08-18T03:06:03.192Z,13.40
2018-08-18T03:08:33.484Z,13.40
2018-08-18T03:11:03.797Z,13.40
2018-08-18T03:13:33.882Z,13.40
2018-08-18T03:16:06.355Z,13.40
2018-08-18T03:18:43.857Z,13.40
2018-08-18T03:21:13.530Z,13.40
2018-08-18T03:23:54.341Z,13.40
2018-08-18T03:26:29.457Z,13.40
2018-08-18T03:28:59.167Z,13.40
2018-08-18T03:31:28.707Z,13.30
2018-08-18T03:33:58.245Z,13.30
2018-08-18T03:36:32.990Z,13.30
2018-08-18T03:39:03.350Z,13.30
2018-08-18T03:41:33.112Z,13.20
2018-08-18T03:44:03.696Z,13.20
2018-08-18T03:46:33.993Z,13.20
2018-08-18T03:49:03.656Z,13.20
2018-08-18T03:51:38.837Z,13.20
2018-08-18T03:54:08.709Z,13.10
2018-08-18T03:56:38.911Z,13.10
2018-08-18T03:59:08.637Z,13.10
2018-08-18T04:01:45.108Z,13.10
2018-08-18T04:04:15.853Z,13.10
2018-08-18T04:06:46.679Z,13.10
2018-08-18T04:09:21.478Z,13.10
2018-08-18T04:11:51.956Z,13.10
2018-08-18T04:14:27.819Z,13.10
2018-08-18T04:16:57.950Z,13.00
2018-08-18T04:19:28.339Z,13.10
2018-08-18T04:21:58.070Z,13.00
2018-08-18T04:24:36.431Z,13.10
2018-08-18T04:27:06.745Z,13.10
2018-08-18T04:29:37.064Z,13.10
2018-08-18T04:32:07.307Z,13.10
2018-08-18T04:34:37.892Z,13.10
2018-08-18T04:37:08.068Z,13.10
2018-08-18T04:39:37.901Z,13.20
2018-08-18T04:42:08.113Z,13.20
2018-08-18T04:44:38.460Z,13.20
2018-08-18T04:47:09.048Z,13.20
2018-08-18T04:49:40.429Z,13.30
2018-08-18T04:52:11.268Z,13.30
2018-08-18T04:54:41.942Z,13.30
2018-08-18T04:57:11.653Z,13.40
2018-08-18T04:59:42.336Z,13.40
2018-08-18T05:02:11.876Z,13.50
2018-08-18T05:04:41.482Z,13.60
2018-08-18T05:07:11.071Z,13.60
2018-08-18T05:09:41.564Z,13.70
2018-08-18T05:12:11.221Z,13.70
2018-08-18T05:14:42.023Z,13.80
2018-08-18T05:17:11.620Z,13.90
2018-08-18T05:19:42.095Z,14.00
2018-08-18T05:22:12.700Z,14.00
2018-08-18T05:24:42.375Z,14.10
2018-08-18T05:27:17.405Z,14.20
2018-08-18T05:29:47.200Z,14.20
2018-08-18T05:32:16.919Z,14.30
2018-08-18T05:34:47.135Z,14.40
2018-08-18T05:37:16.850Z,14.40
2018-08-18T05:39:47.590Z,14.50
2018-08-18T05:42:17.102Z,14.60
2018-08-18T05:44:47.722Z,14.70
2018-08-18T05:47:17.225Z,14.80
2018-08-18T05:49:46.949Z,14.90
2018-08-18T05:52:17.257Z,14.90
2018-08-18T05:54:47.886Z,15.00
2018-08-18T05:57:17.452Z,15.10
2018-08-18T05:59:48.388Z,15.20
2018-08-18T06:02:18.572Z,15.20
2018-08-18T06:04:48.755Z,15.30
2018-08-18T06:07:18.969Z,15.30
2018-08-18T06:09:49.160Z,15.50
2018-08-18T06:12:19.649Z,15.50
2018-08-18T06:14:49.656Z,15.60
2018-08-18T06:17:24.332Z,15.60
2018-08-18T06:19:54.752Z,15.70
2018-08-18T06:22:24.694Z,15.80
2018-08-18T06:24:55.073Z,15.90
2018-08-18T06:27:29.212Z,16.00
2018-08-18T06:29:59.729Z,16.10
2018-08-18T06:32:30.116Z,16.10
2018-08-18T06:35:00.367Z,16.20
2018-08-18T06:37:30.075Z,16.30
2018-08-18T06:40:00.473Z,16.40
2018-08-18T06:42:36.526Z,16.40
2018-08-18T06:45:10.001Z,16.50
2018-08-18T06:47:40.495Z,16.60
2018-08-18T06:50:12.290Z,16.60
2018-08-18T06:52:42.509Z,16.70
2018-08-18T06:55:17.771Z,16.70
2018-08-18T06:57:49.868Z,16.80
2018-08-18T07:00:22.745Z,16.90
2018-08-18T07:02:52.477Z,16.90
2018-08-18T07:05:22.841Z,16.90
2018-08-18T07:07:53.224Z,17.00
2018-08-18T07:10:35.001Z,17.10
2018-08-18T07:13:06.710Z,17.20
2018-08-18T07:15:43.059Z,17.20
2018-08-18T07:18:14.326Z,17.30
2018-08-18T07:20:44.345Z,17.40
2018-08-18T07:23:13.986Z,17.50
2018-08-18T07:25:50.124Z,17.50
2018-08-18T07:28:20.918Z,17.60
2018-08-18T07:30:51.447Z,17.70
2018-08-18T07:33:22.109Z,17.80
2018-08-18T07:35:52.321Z,17.80
2018-08-18T07:38:23.275Z,17.90
2018-08-18T07:40:54.114Z,18.00
2018-08-18T07:43:33.867Z,18.00
2018-08-18T07:46:06.818Z,18.10
2018-08-18T07:48:37.230Z,18.20
2018-08-18T07:51:06.860Z,18.20
2018-08-18T07:53:36.351Z,18.30
2018-08-18T07:56:07.046Z,18.40
2018-08-18T07:58:39.259Z,18.40
2018-08-18T08:01:09.861Z,18.40
2018-08-18T08:03:40.301Z,18.50
2018-08-18T08:06:10.660Z,18.40
2018-08-18T08:08:45.852Z,18.40
2018-08-18T08:11:16.106Z,18.50
2018-08-18T08:13:45.923Z,18.50
2018-08-18T08:16:17.870Z,18.60
2018-08-18T08:18:48.653Z,18.60
2018-08-18T08:21:18.285Z,18.70
2018-08-18T08:23:47.896Z,18.90
2018-08-18T08:26:17.540Z,19.00
2018-08-18T08:28:47.910Z,19.10
2018-08-18T08:31:17.632Z,19.10
2018-08-18T08:33:47.486Z,19.10
2018-08-18T08:36:18.495Z,19.20
2018-08-18T08:38:57.422Z,19.20
2018-08-18T08:41:28.391Z,19.30
2018-08-18T08:43:58.654Z,19.30
2018-08-18T08:46:28.412Z,19.30
2018-08-18T08:49:00.115Z,19.20
2018-08-18T08:51:30.307Z,19.20
2018-08-18T08:54:01.089Z,19.20
2018-08-18T08:56:34.897Z,19.20
2018-08-18T08:59:05.397Z,19.20
2018-08-18T09:01:35.892Z,19.20
2018-08-18T09:04:05.638Z,19.20
2018-08-18T09:06:36.391Z,19.10
2018-08-18T09:09:08.803Z,19.20
2018-08-18T09:11:38.365Z,19.10
2018-08-18T09:14:09.522Z,19.20
2018-08-18T09:16:40.049Z,19.40
2018-08-18T09:19:10.377Z,19.50
2018-08-18T09:21:45.469Z,19.60
2018-08-18T09:24:15.505Z,19.70
2018-08-18T09:26:50.345Z,19.80
2018-08-18T09:29:20.709Z,19.80
2018-08-18T09:31:51.679Z,19.80
2018-08-18T09:34:21.250Z,19.70
2018-08-18T09:36:50.780Z,19.80
2018-08-18T09:39:33.372Z,19.90
2018-08-18T09:42:04.517Z,20.00
2018-08-18T09:44:35.452Z,20.20
2018-08-18T09:47:05.172Z,20.10
2018-08-18T09:49:34.650Z,20.20
2018-08-18T09:52:04.603Z,20.30
2018-08-18T09:54:34.201Z,20.30
2018-08-18T09:57:03.770Z,20.30
2018-08-18T09:59:33.336Z,20.30
2018-08-18T10:02:02.927Z,20.40
2018-08-18T10:04:32.425Z,20.40
2018-08-18T10:07:01.953Z,20.40
2018-08-18T10:09:31.462Z,20.40
2018-08-18T10:12:01.000Z,20.40
2018-08-18T10:14:30.496Z,20.50
2018-08-18T10:17:00.033Z,20.60
2018-08-18T10:19:31.837Z,20.70
2018-08-18T10:22:02.088Z,20.80
2018-08-18T10:24:31.602Z,20.80
2018-08-18T10:27:05.469Z,20.80
2018-08-18T10:29:34.912Z,20.80
2018-08-18T10:32:04.530Z,20.90
2018-08-18T10:34:34.381Z,20.90
2018-08-18T10:37:05.282Z,21.00
2018-08-18T10:39:35.572Z,21.00
2018-08-18T10:42:08.554Z,21.00
2018-08-18T10:44:38.293Z,20.90
2018-08-18T10:47:14.428Z,21.00
2018-08-18T10:49:55.139Z,21.10
2018-08-18T10:52:36.620Z,21.20
2018-08-18T10:55:08.872Z,21.30
2018-08-18T10:57:50.326Z,21.30
2018-08-18T11:00:21.263Z,21.20
2018-08-18T11:02:51.953Z,21.30
2018-08-18T11:05:22.111Z,21.30
2018-08-18T11:07:57.919Z,21.30
2018-08-18T11:10:29.369Z,21.10
2018-08-18T11:12:58.949Z,21.30
2018-08-18T11:15:28.566Z,21.50
2018-08-18T11:17:58.746Z,21.60
2018-08-18T11:20:29.773Z,21.60
2018-08-18T11:23:10.312Z,21.70
2018-08-18T11:25:44.022Z,21.70
2018-08-18T11:28:14.196Z,21.60
2018-08-18T11:30:43.762Z,21.60
2018-08-18T11:33:23.218Z,21.60
2018-08-18T11:35:52.741Z,21.60
2018-08-18T11:38:22.257Z,21.50
2018-08-18T11:40:51.789Z,21.60
2018-08-18T11:43:21.355Z,21.60
2018-08-18T11:45:50.822Z,21.60
2018-08-18T11:48:22.193Z,21.60
2018-08-18T11:50:54.891Z,21.60
2018-08-18T11:53:24.480Z,21.60
2018-08-18T11:55:54.412Z,21.60
2018-08-18T11:58:24.854Z,21.60
2018-08-18T12:00:55.700Z,21.50
2018-08-18T12:03:27.800Z,21.50
2018-08-18T12:05:58.834Z,21.50
2018-08-18T12:08:29.602Z,21.40
2018-08-18T12:11:00.770Z,21.40
2018-08-18T12:13:35.525Z,21.40
2018-08-18T12:16:18.365Z,21.40
2018-08-18T12:18:48.760Z,21.60
2018-08-18T12:21:18.497Z,21.80
2018-08-18T12:23:48.888Z,22.00
2018-08-18T12:26:21.808Z,22.10
2018-08-18T12:28:53.039Z,22.20
2018-08-18T12:31:26.742Z,22.10
2018-08-18T12:33:56.603Z,22.10
2018-08-18T12:36:26.454Z,22.20
2018-08-18T12:38:57.327Z,22.20
2018-08-18T12:41:26.877Z,22.10
2018-08-18T12:43:57.822Z,22.00
2018-08-18T12:47:02.965Z,22.10
2018-08-18T12:49:32.614Z,22.00
2018-08-18T12:52:02.210Z,22.00
2018-08-18T12:54:31.783Z,22.00
2018-08-18T12:57:01.323Z,21.90
2018-08-18T12:59:30.815Z,21.90
2018-08-18T13:02:00.407Z,21.90
2018-08-18T13:04:29.972Z,21.80
2018-08-18T13:06:59.543Z,21.80
2018-08-18T13:09:29.123Z,21.90
2018-08-18T13:12:00.715Z,22.00
2018-08-18T13:14:31.358Z,21.90
2018-08-18T13:17:00.836Z,22.10
2018-08-18T13:19:32.480Z,22.30
2018-08-18T13:22:02.032Z,22.30
2018-08-18T13:24:32.181Z,22.50
2018-08-18T13:27:02.631Z,22.50
2018-08-18T13:29:33.400Z,22.40
2018-08-18T13:32:02.961Z,22.40
2018-08-18T13:34:32.490Z,22.30
2018-08-18T13:37:02.128Z,22.10
2018-08-18T13:39:31.640Z,22.00
2018-08-18T13:42:11.507Z,21.80
2018-08-18T13:44:40.993Z,21.70
2018-08-18T13:47:10.639Z,21.60
2018-08-18T13:49:40.138Z,21.40
2018-08-18T13:52:09.689Z,21.30
2018-08-18T13:54:43.386Z,21.20
2018-08-18T13:57:12.924Z,21.20
2018-08-18T13:59:43.550Z,21.20
2018-08-18T14:02:13.116Z,21.10
2018-08-18T14:04:43.426Z,21.10
2018-08-18T14:07:13.397Z,21.10
2018-08-18T14:09:44.996Z,21.10
2018-08-18T14:12:16.822Z,21.00
2018-08-18T14:14:47.374Z,20.90
2018-08-18T14:17:19.506Z,20.80
2018-08-18T14:19:49.674Z,20.70
2018-08-18T14:22:20.243Z,20.60
2018-08-18T14:24:49.793Z,20.50
2018-08-18T14:27:21.751Z,20.40
2018-08-18T14:29:51.300Z,20.40
2018-08-18T14:32:26.136Z,20.30
2018-08-18T14:35:01.797Z,20.20
2018-08-18T14:37:31.273Z,20.10
2018-08-18T14:40:00.746Z,20.10
2018-08-18T14:42:30.272Z,20.10
2018-08-18T14:45:00.563Z,20.10
2018-08-18T14:47:30.099Z,20.10
2018-08-18T14:50:14.604Z,20.10
2018-08-18T14:52:45.219Z,20.20
2018-08-18T14:55:15.402Z,20.20
2018-08-18T14:58:02.415Z,20.20
2018-08-18T15:00:32.312Z,20.10
2018-08-18T15:03:01.835Z,20.20
2018-08-18T15:05:31.396Z,20.20
2018-08-18T15:08:03.141Z,20.20
2018-08-18T15:10:41.954Z,20.10
2018-08-18T15:13:12.140Z,20.10
2018-08-18T15:15:41.779Z,20.10
2018-08-18T15:18:13.989Z,20.10
2018-08-18T15:20:44.077Z,20.10
2018-08-18T15:23:14.527Z,20.20
2018-08-18T15:25:47.968Z,20.20
2018-08-18T15:28:18.605Z,20.20
2018-08-18T15:30:49.494Z,20.40
2018-08-18T15:33:20.898Z,20.40
2018-08-18T15:35:50.414Z,20.40
2018-08-18T15:38:26.027Z,20.50
2018-08-18T15:40:55.512Z,20.50
2018-08-18T15:43:24.993Z,20.50
2018-08-18T15:45:59.412Z,20.60
2018-08-18T15:48:28.988Z,20.50
2018-08-18T15:50:58.531Z,20.40
2018-08-18T15:54:00.996Z,20.40
2018-08-18T15:56:31.790Z,20.20
2018-08-18T15:59:01.936Z,20.20
2018-08-18T16:01:33.496Z,20.20
2018-08-18T16:04:03.762Z,20.10
2018-08-18T16:06:33.268Z,20.10
2018-08-18T16:09:02.864Z,20.00
2018-08-18T16:11:32.364Z,19.90
2018-08-18T16:14:01.901Z,19.90
2018-08-18T16:16:31.384Z,19.80
2018-08-18T16:19:06.274Z,19.80
2018-08-18T16:21:35.773Z,19.80
2018-08-18T16:24:05.487Z,19.90
2018-08-18T16:26:34.961Z,19.80
2018-08-18T16:29:04.479Z,19.80
2018-08-18T16:31:33.971Z,19.80
2018-08-18T16:34:03.501Z,19.70
2018-08-18T16:36:38.230Z,19.70
2018-08-18T16:39:07.729Z,19.70
2018-08-18T16:41:37.266Z,19.60
2018-08-18T16:44:06.828Z,19.60
2018-08-18T16:46:36.311Z,19.60
2018-08-18T16:49:05.876Z,19.60
2018-08-18T16:51:35.418Z,19.60
2018-08-18T16:54:23.219Z,19.60
2018-08-18T16:56:52.722Z,19.60
2018-08-18T16:59:22.236Z,19.60
2018-08-18T17:01:51.768Z,19.60
2018-08-18T17:04:26.505Z,19.60
2018-08-18T17:06:56.238Z,19.60
2018-08-18T17:09:38.306Z,19.60
2018-08-18T17:12:21.885Z,19.60
2018-08-18T17:14:51.476Z,19.60
2018-08-18T17:17:23.471Z,19.50
2018-08-18T17:19:53.002Z,19.50
2018-08-18T17:22:22.508Z,19.50
2018-08-18T17:24:52.145Z,19.50
2018-08-18T17:27:21.679Z,19.50
2018-08-18T17:29:52.372Z,19.50
2018-08-18T17:32:21.950Z,19.40
2018-08-18T17:34:51.476Z,19.40
2018-08-18T17:37:21.006Z,19.40
2018-08-18T17:39:50.561Z,19.40
2018-08-18T17:42:20.089Z,19.40
2018-08-18T17:44:49.577Z,19.40
2018-08-18T17:47:19.164Z,19.30
2018-08-18T17:49:54.026Z,19.30
2018-08-18T17:52:24.518Z,19.30
2018-08-18T17:55:05.750Z,19.30
2018-08-18T17:57:36.078Z,19.30
2018-08-18T18:00:15.243Z,19.30
2018-08-18T18:02:50.620Z,19.30
2018-08-18T18:05:24.454Z,19.20
2018-08-18T18:07:58.396Z,19.30
2018-08-18T18:10:30.011Z,19.20
2018-08-18T18:12:59.572Z,19.20
2018-08-18T18:15:38.889Z,19.20
2018-08-18T18:18:16.900Z,19.10
2018-08-18T18:20:50.706Z,19.10
2018-08-18T18:23:20.796Z,19.10
2018-08-18T18:25:50.383Z,19.10
2018-08-18T18:28:20.005Z,19.10
2018-08-18T18:30:51.976Z,19.10
2018-08-18T18:33:21.535Z,19.00
2018-08-18T18:35:51.340Z,19.00
2018-08-18T18:38:20.853Z,19.10
2018-08-18T18:40:50.376Z,19.10
2018-08-18T18:43:19.881Z,19.00
2018-08-18T18:45:49.525Z,19.00
2018-08-18T18:48:19.080Z,19.00
2018-08-18T18:50:49.584Z,19.00
2018-08-18T18:53:19.109Z,18.90
2018-08-18T18:55:54.884Z,19.00
2018-08-18T18:58:24.493Z,18.90
2018-08-18T19:00:57.022Z,18.90
2018-08-18T19:03:26.526Z,19.00
2018-08-18T19:05:56.069Z,18.90
2018-08-18T19:08:25.570Z,19.00
2018-08-18T19:10:55.239Z,18.90
2018-08-18T19:13:26.917Z,18.90
2018-08-18T19:15:56.503Z,18.90
2018-08-18T19:18:26.009Z,18.90
2018-08-18T19:20:55.556Z,18.90
2018-08-18T19:23:25.077Z,18.80
2018-08-18T19:25:54.755Z,18.80
2018-08-18T19:28:24.241Z,18.80
2018-08-18T19:30:53.737Z,18.70
2018-08-18T19:33:23.300Z,18.70
2018-08-18T19:35:53.556Z,18.70
2018-08-18T19:38:24.485Z,18.60
2018-08-18T19:40:55.289Z,18.50
2018-08-18T19:43:26.077Z,18.40
2018-08-18T19:45:56.189Z,18.30
2018-08-18T19:48:26.968Z,18.30
2018-08-18T19:51:01.672Z,18.40
2018-08-18T19:53:36.448Z,18.30
2018-08-18T19:56:10.670Z,18.20
2018-08-18T19:58:40.232Z,18.20
2018-08-18T20:01:09.764Z,18.20
2018-08-18T20:03:39.440Z,18.10
2018-08-18T20:06:16.045Z,18.10
2018-08-18T20:08:45.556Z,18.10
2018-08-18T20:11:15.131Z,18.10
2018-08-18T20:13:44.720Z,18.00
2018-08-18T20:16:14.301Z,18.00
2018-08-18T20:18:43.823Z,18.00
2018-08-18T20:21:13.396Z,18.00
2018-08-18T20:23:42.974Z,18.00
2018-08-18T20:26:12.559Z,18.00
2018-08-18T20:28:42.214Z,18.00
2018-08-18T20:31:12.243Z,18.00
2018-08-18T20:33:41.847Z,18.00
2018-08-18T20:36:11.351Z,18.00
2018-08-18T20:38:46.043Z,17.90
2018-08-18T20:41:15.592Z,17.90
2018-08-18T20:43:47.589Z,18.00
2018-08-18T20:46:17.267Z,18.00
2018-08-18T20:48:46.822Z,18.00
2018-08-18T20:51:20.510Z,18.00
2018-08-18T20:53:50.098Z,18.00
2018-08-18T20:56:19.646Z,18.00
2018-08-18T20:58:49.173Z,18.00
2018-08-18T21:01:18.705Z,18.00
2018-08-18T21:03:50.740Z,18.00
2018-08-18T21:06:20.793Z,18.00
2018-08-18T21:08:50.909Z,18.00
2018-08-18T21:11:21.150Z,18.00
2018-08-18T21:13:51.528Z,18.00
2018-08-18T21:16:23.234Z,18.00
2018-08-18T21:18:52.815Z,18.00
2018-08-18T21:21:34.027Z,18.00
2018-08-18T21:24:03.749Z,18.00
2018-08-18T21:26:33.274Z,18.00
2018-08-18T21:29:02.798Z,18.00
2018-08-18T21:31:33.828Z,18.10
2018-08-18T21:34:04.602Z,18.10
2018-08-18T21:36:34.495Z,18.10
2018-08-18T21:39:06.999Z,18.10
2018-08-18T21:41:36.981Z,18.20
2018-08-18T21:44:08.115Z,18.20
2018-08-18T21:46:38.145Z,18.10
2018-08-18T21:49:09.589Z,18.20
2018-08-18T21:51:40.727Z,18.20
2018-08-18T21:54:10.266Z,18.20
2018-08-18T21:56:41.285Z,18.20
2018-08-18T21:59:12.967Z,18.20
2018-08-18T22:01:43.516Z,18.30
2018-08-18T22:04:13.208Z,18.20
2018-08-18T22:06:42.960Z,18.30
2018-08-18T22:09:20.909Z,18.30
2018-08-18T22:11:50.649Z,18.30
2018-08-18T22:14:20.597Z,18.30
2018-08-18T22:16:55.886Z,18.30
2018-08-18T22:19:26.211Z,18.30
2018-08-18T22:21:56.398Z,18.30
2018-08-18T22:24:26.550Z,18.30
2018-08-18T22:26:57.368Z,18.40
2018-08-18T22:29:27.616Z,18.40
2018-08-18T22:31:57.459Z,18.30
2018-08-18T22:34:27.113Z,18.40
2018-08-18T22:37:02.823Z,18.40
2018-08-18T22:39:32.591Z,18.40
2018-08-18T22:42:02.224Z,18.40
2018-08-18T22:44:32.660Z,18.40
2018-08-18T22:47:03.773Z,18.40
2018-08-18T22:49:33.629Z,18.40
2018-08-18T22:52:04.012Z,18.40
2018-08-18T22:54:35.542Z,18.40
2018-08-18T22:57:06.248Z,18.40
2018-08-18T22:59:35.888Z,18.40
2018-08-18T23:02:05.756Z,18.40
2018-08-18T23:04:36.414Z,18.40
2018-08-18T23:07:06.863Z,18.40
2018-08-18T23:09:37.022Z,18.40
2018-08-18T23:12:07.581Z,18.40
2018-08-18T23:14:38.753Z,18.40
2018-08-18T23:17:10.442Z,18.40
2018-08-18T23:19:40.605Z,18.40
2018-08-18T23:22:20.753Z,18.30
2018-08-18T23:24:50.631Z,18.30
2018-08-18T23:27:22.178Z,18.30
2018-08-18T23:29:53.083Z,18.20
2018-08-18T23:32:25.577Z,18.20
2018-08-18T23:34:57.011Z,18.20
2018-08-18T23:37:27.783Z,18.10
2018-08-18T23:39:57.656Z,18.10
2018-08-18T23:42:28.008Z,18.10
2018-08-18T23:44:57.690Z,18.10
2018-08-18T23:47:27.524Z,18.00
2018-08-18T23:49:57.252Z,18.00
2018-08-18T23:52:28.201Z,18.00
2018-08-18T23:54:58.876Z,18.00
2018-08-18T23:57:28.606Z,18.00
2018-08-18T23:59:58.281Z,18.00
